createdAt,value
2023-04-06T00:00:46.696Z,996.73
2023-04-06T00:01:46.689Z,996.70
2023-04-06T00:02:46.691Z,996.72
2023-04-06T00:03:46.673Z,996.70
2023-04-06T00:04:46.622Z,996.70
2023-04-06T00:05:46.603Z,996.64
2023-04-06T00:06:46.585Z,996.67
2023-04-06T00:07:46.564Z,996.67
2023-04-06T00:08:46.546Z,996.64
2023-04-06T00:09:46.529Z,996.66
2023-04-06T00:10:46.521Z,996.61
2023-04-06T00:11:46.503Z,996.67
2023-04-06T00:12:46.485Z,996.65
2023-04-06T00:13:46.458Z,996.65
2023-04-06T00:14:46.430Z,996.64
2023-04-06T00:15:46.425Z,996.64
2023-04-06T00:16:46.431Z,996.62
2023-04-06T00:17:46.432Z,996.62
2023-04-06T00:18:46.365Z,996.62
2023-04-06T00:19:46.334Z,996.57
2023-04-06T00:20:46.319Z,996.56
2023-04-06T00:21:46.313Z,996.56
2023-04-06T00:22:46.293Z,996.62
2023-04-06T00:23:46.261Z,996.59
2023-04-06T00:24:46.239Z,996.56
2023-04-06T00:25:46.244Z,996.52
2023-04-06T00:26:46.208Z,996.56
2023-04-06T00:27:46.188Z,996.52
2023-04-06T00:28:46.166Z,996.53
2023-04-06T00:29:46.152Z,996.54
2023-04-06T00:30:46.134Z,996.56
2023-04-06T00:31:46.129Z,996.51
2023-04-06T00:32:46.109Z,996.56
2023-04-06T00:33:46.073Z,996.53
2023-04-06T00:34:46.053Z,996.57
2023-04-06T00:35:46.079Z,996.53
2023-04-06T00:36:46.032Z,996.53
2023-04-06T00:37:46.003Z,996.50
2023-04-06T00:38:46.032Z,996.47
2023-04-06T00:39:45.976Z,996.45
2023-04-06T00:40:45.941Z,996.45
2023-04-06T00:41:45.918Z,996.46
2023-04-06T00:42:45.900Z,996.49
2023-04-06T00:43:45.882Z,996.47
2023-04-06T00:44:45.865Z,996.50
2023-04-06T00:45:45.902Z,996.49
2023-04-06T00:46:45.894Z,996.48
2023-04-06T00:47:45.895Z,996.47
2023-04-06T00:48:45.788Z,996.43
2023-04-06T00:49:45.766Z,996.42
2023-04-06T00:50:45.749Z,996.41
2023-04-06T00:51:45.736Z,996.45
2023-04-06T00:52:45.717Z,996.38
2023-04-06T00:53:45.693Z,996.41
2023-04-06T00:54:45.677Z,996.38
2023-04-06T00:55:45.659Z,996.38
2023-04-06T00:56:45.646Z,996.35
2023-04-06T00:57:45.612Z,996.33
2023-04-06T00:58:45.597Z,996.32
2023-04-06T00:59:45.589Z,996.33
2023-04-06T01:00:45.559Z,996.28
2023-04-06T01:01:45.566Z,996.31
2023-04-06T01:02:45.530Z,996.29
2023-04-06T01:03:45.503Z,996.27
2023-04-06T01:04:45.484Z,996.27
2023-04-06T01:05:45.526Z,996.31
2023-04-06T01:06:45.443Z,996.30
2023-04-06T01:07:45.432Z,996.25
2023-04-06T01:08:45.409Z,996.23
2023-04-06T01:09:45.384Z,996.26
2023-04-06T01:10:45.378Z,996.20
2023-04-06T01:11:45.346Z,996.20
2023-04-06T01:12:45.329Z,996.21
2023-04-06T01:13:45.432Z,996.18
2023-04-06T01:14:45.401Z,996.15
2023-04-06T01:15:45.354Z,996.15
2023-04-06T01:16:45.301Z,996.11
2023-04-06T01:17:45.365Z,996.09
2023-04-06T01:18:45.233Z,996.06
2023-04-06T01:19:45.197Z,996.07
2023-04-06T01:20:45.176Z,996.05
2023-04-06T01:21:45.172Z,996.05
2023-04-06T01:22:45.142Z,996.06
2023-04-06T01:23:45.118Z,996.07
2023-04-06T01:24:45.105Z,996.06
2023-04-06T01:25:45.080Z,996.07
2023-04-06T01:26:45.070Z,996.05
2023-04-06T01:27:45.092Z,996.03
2023-04-06T01:28:45.025Z,996.04
2023-04-06T01:29:45.010Z,996.01
2023-04-06T01:30:44.991Z,996.06
2023-04-06T01:31:44.991Z,996.03
2023-04-06T01:32:44.970Z,996.02
2023-04-06T01:33:44.927Z,996.00
2023-04-06T01:34:44.915Z,996.02
2023-04-06T01:35:44.961Z,996.01
2023-04-06T01:36:44.883Z,996.00
2023-04-06T01:37:44.882Z,996.01
2023-04-06T01:38:44.863Z,995.98
2023-04-06T01:39:44.808Z,995.99
2023-04-06T01:40:44.797Z,995.94
2023-04-06T01:41:44.773Z,995.96
2023-04-06T01:42:44.768Z,995.93
2023-04-06T01:43:44.739Z,995.96
2023-04-06T01:44:44.726Z,995.95
2023-04-06T01:45:44.696Z,995.95
2023-04-06T01:46:44.715Z,995.93
2023-04-06T01:47:44.758Z,995.92
2023-04-06T01:48:44.639Z,995.89
2023-04-06T01:49:44.628Z,995.94
2023-04-06T01:50:44.599Z,995.91
2023-04-06T01:51:44.577Z,995.92
2023-04-06T01:52:44.560Z,995.92
2023-04-06T01:53:44.541Z,995.91
2023-04-06T01:54:44.529Z,995.91
2023-04-06T01:55:44.501Z,995.92
2023-04-06T01:56:44.496Z,995.96
2023-04-06T01:57:44.465Z,995.93
2023-04-06T01:58:44.484Z,995.92
2023-04-06T01:59:44.510Z,995.94
2023-04-06T02:00:44.463Z,995.91
2023-04-06T02:01:44.434Z,995.98
2023-04-06T02:02:44.401Z,995.94
2023-04-06T02:03:44.353Z,995.94
2023-04-06T02:04:44.333Z,995.95
2023-04-06T02:05:44.311Z,995.95
2023-04-06T02:06:44.296Z,995.99
2023-04-06T02:07:44.295Z,996.00
2023-04-06T02:08:44.252Z,996.00
2023-04-06T02:09:44.228Z,995.99
2023-04-06T02:10:44.215Z,995.98
2023-04-06T02:11:44.196Z,996.02
2023-04-06T02:12:44.181Z,996.01
2023-04-06T02:13:44.157Z,996.02
2023-04-06T02:14:44.139Z,996.02
2023-04-06T02:15:44.120Z,996.02
2023-04-06T02:16:44.153Z,996.03
2023-04-06T02:17:44.130Z,996.00
2023-04-06T02:18:44.067Z,995.97
2023-04-06T02:19:44.040Z,995.97
2023-04-06T02:20:44.029Z,995.99
2023-04-06T02:21:44.000Z,995.98
2023-04-06T02:22:43.987Z,995.97
2023-04-06T02:23:43.972Z,996.00
2023-04-06T02:24:43.942Z,995.98
2023-04-06T02:25:43.923Z,995.95
2023-04-06T02:26:43.904Z,995.95
2023-04-06T02:27:43.887Z,995.94
2023-04-06T02:28:43.879Z,995.92
2023-04-06T02:29:43.847Z,995.93
2023-04-06T02:30:43.852Z,995.92
2023-04-06T02:31:43.825Z,995.87
2023-04-06T02:32:43.851Z,995.90
2023-04-06T02:33:43.780Z,995.94
2023-04-06T02:34:43.747Z,995.88
2023-04-06T02:35:43.753Z,995.86
2023-04-06T02:36:43.712Z,995.85
2023-04-06T02:37:43.690Z,995.83
2023-04-06T02:38:43.673Z,995.82
2023-04-06T02:39:43.649Z,995.79
2023-04-06T02:40:43.637Z,995.79
2023-04-06T02:41:43.625Z,995.78
2023-04-06T02:42:43.592Z,995.80
2023-04-06T02:43:43.575Z,995.72
2023-04-06T02:44:43.583Z,995.73
2023-04-06T02:45:43.599Z,995.73
2023-04-06T02:46:43.516Z,995.74
2023-04-06T02:47:43.524Z,995.75
2023-04-06T02:48:43.475Z,995.74
2023-04-06T02:49:43.463Z,995.71
2023-04-06T02:50:43.441Z,995.70
2023-04-06T02:51:43.436Z,995.70
2023-04-06T02:52:43.405Z,995.71
2023-04-06T02:53:43.383Z,995.71
2023-04-06T02:54:43.366Z,995.71
2023-04-06T02:55:43.342Z,995.74
2023-04-06T02:56:43.330Z,995.71
2023-04-06T02:57:43.309Z,995.71
2023-04-06T02:58:43.286Z,995.74
2023-04-06T02:59:43.286Z,995.75
2023-04-06T03:00:43.305Z,995.68
2023-04-06T03:01:43.329Z,995.71
2023-04-06T03:02:43.243Z,995.74
2023-04-06T03:03:43.257Z,995.73
2023-04-06T03:04:43.179Z,995.72
2023-04-06T03:05:43.156Z,995.70
2023-04-06T03:06:43.123Z,995.73
2023-04-06T03:07:43.113Z,995.74
2023-04-06T03:08:43.098Z,995.71
2023-04-06T03:09:43.067Z,995.75
2023-04-06T03:10:43.054Z,995.74
2023-04-06T03:11:43.040Z,995.74
2023-04-06T03:12:43.005Z,995.72
2023-04-06T03:13:42.986Z,995.74
2023-04-06T03:14:42.983Z,995.75
2023-04-06T03:15:42.999Z,995.77
2023-04-06T03:16:42.931Z,995.74
2023-04-06T03:17:42.985Z,995.73
2023-04-06T03:18:42.887Z,995.74
2023-04-06T03:19:42.876Z,995.76
2023-04-06T03:20:42.847Z,995.78
2023-04-06T03:21:42.826Z,995.78
2023-04-06T03:22:42.810Z,995.80
2023-04-06T03:23:42.798Z,995.77
2023-04-06T03:24:42.775Z,995.78
2023-04-06T03:25:42.750Z,995.80
2023-04-06T03:26:42.727Z,995.79
2023-04-06T03:27:42.708Z,995.81
2023-04-06T03:28:42.688Z,995.83
2023-04-06T03:29:42.679Z,995.81
2023-04-06T03:30:42.645Z,995.82
2023-04-06T03:31:42.696Z,995.81
2023-04-06T03:32:42.656Z,995.79
2023-04-06T03:33:42.596Z,995.79
2023-04-06T03:34:42.581Z,995.80
2023-04-06T03:35:42.606Z,995.84
2023-04-06T03:36:42.542Z,995.85
2023-04-06T03:37:42.516Z,995.86
2023-04-06T03:38:42.498Z,995.88
2023-04-06T03:39:42.477Z,995.88
2023-04-06T03:40:42.461Z,995.85
2023-04-06T03:41:42.438Z,995.89
2023-04-06T03:42:42.433Z,995.86
2023-04-06T03:43:42.387Z,995.91
2023-04-06T03:44:42.380Z,995.91
2023-04-06T03:45:42.387Z,995.91
2023-04-06T03:46:42.345Z,995.92
2023-04-06T03:47:42.331Z,995.88
2023-04-06T03:48:42.302Z,995.88
2023-04-06T03:49:42.275Z,995.96
2023-04-06T03:50:42.250Z,995.94
2023-04-06T03:51:42.238Z,995.90
2023-04-06T03:52:42.214Z,995.92
2023-04-06T03:53:42.191Z,995.91
2023-04-06T03:54:42.168Z,995.93
2023-04-06T03:55:42.161Z,995.92
2023-04-06T03:56:42.138Z,995.91
2023-04-06T03:57:42.135Z,995.93
2023-04-06T03:58:42.085Z,995.90
2023-04-06T03:59:42.141Z,995.94
2023-04-06T04:00:42.050Z,995.94
2023-04-06T04:01:42.049Z,995.93
2023-04-06T04:02:42.053Z,995.96
2023-04-06T04:03:42.060Z,995.93
2023-04-06T04:04:42.001Z,995.91
2023-04-06T04:05:41.982Z,995.91
2023-04-06T04:06:41.930Z,995.91
2023-04-06T04:07:41.904Z,995.92
2023-04-06T04:08:41.884Z,995.89
2023-04-06T04:09:41.898Z,995.86
2023-04-06T04:10:41.844Z,995.91
2023-04-06T04:11:41.827Z,995.92
2023-04-06T04:12:41.810Z,995.93
2023-04-06T04:13:41.790Z,995.92
2023-04-06T04:14:41.768Z,995.93
2023-04-06T04:15:41.746Z,995.93
2023-04-06T04:16:41.781Z,995.96
2023-04-06T04:17:43.897Z,995.95
2023-04-06T04:18:41.698Z,995.96
2023-04-06T04:19:42.001Z,996.00
2023-04-06T04:20:41.651Z,996.00
2023-04-06T04:21:41.628Z,995.98
2023-04-06T04:22:41.610Z,996.01
2023-04-06T04:23:41.587Z,995.99
2023-04-06T04:24:41.564Z,995.99
2023-04-06T04:25:41.555Z,995.99
2023-04-06T04:26:41.535Z,995.98
2023-04-06T04:27:41.507Z,995.98
2023-04-06T04:28:41.497Z,995.96
2023-04-06T04:29:41.469Z,995.96
2023-04-06T04:30:41.445Z,995.99
2023-04-06T04:31:41.471Z,996.02
2023-04-06T04:32:41.473Z,995.98
2023-04-06T04:33:41.393Z,995.95
2023-04-06T04:34:41.418Z,996.00
2023-04-06T04:35:41.393Z,995.97
2023-04-06T04:36:41.338Z,996.02
2023-04-06T04:37:41.316Z,995.99
2023-04-06T04:38:41.292Z,996.04
2023-04-06T04:39:41.271Z,996.02
2023-04-06T04:40:41.258Z,996.03
2023-04-06T04:41:41.234Z,996.00
2023-04-06T04:42:41.216Z,996.01
2023-04-06T04:43:41.197Z,995.99
2023-04-06T04:44:41.172Z,996.03
2023-04-06T04:45:41.231Z,995.98
2023-04-06T04:46:41.136Z,996.00
2023-04-06T04:47:41.144Z,996.01
2023-04-06T04:48:41.090Z,996.03
2023-04-06T04:49:41.082Z,996.01
2023-04-06T04:50:41.056Z,996.03
2023-04-06T04:51:41.032Z,996.03
2023-04-06T04:52:41.032Z,996.04
2023-04-06T04:53:41.001Z,996.01
2023-04-06T04:54:40.970Z,996.07
2023-04-06T04:55:40.951Z,996.04
2023-04-06T04:56:40.964Z,996.05
2023-04-06T04:57:40.919Z,996.06
2023-04-06T04:58:40.890Z,996.10
2023-04-06T04:59:41.057Z,996.09
2023-04-06T05:00:40.853Z,996.11
2023-04-06T05:01:51.787Z,996.11
2023-04-06T05:02:40.909Z,996.13
2023-04-06T05:03:40.925Z,996.18
2023-04-06T05:04:40.769Z,996.22
2023-04-06T05:05:40.767Z,996.17
2023-04-06T05:06:40.728Z,996.18
2023-04-06T05:07:40.726Z,996.18
2023-04-06T05:08:40.694Z,996.19
2023-04-06T05:09:40.681Z,996.20
2023-04-06T05:10:40.653Z,996.19
2023-04-06T05:11:40.632Z,996.19
2023-04-06T05:12:40.614Z,996.21
2023-04-06T05:13:40.662Z,996.20
2023-04-06T05:14:40.581Z,996.20
2023-04-06T05:15:40.565Z,996.22
2023-04-06T05:16:40.533Z,996.20
2023-04-06T05:17:40.561Z,996.24
2023-04-06T05:18:40.508Z,996.21
2023-04-06T05:19:40.473Z,996.22
2023-04-06T05:20:40.456Z,996.22
2023-04-06T05:21:40.436Z,996.23
2023-04-06T05:22:40.413Z,996.28
2023-04-06T05:23:40.398Z,996.30
2023-04-06T05:24:40.373Z,996.23
2023-04-06T05:25:40.363Z,996.25
2023-04-06T05:26:40.335Z,996.27
2023-04-06T05:27:40.328Z,996.30
2023-04-06T05:28:40.297Z,996.31
2023-04-06T05:29:40.282Z,996.30
2023-04-06T05:30:40.250Z,996.34
2023-04-06T05:31:40.290Z,996.32
2023-04-06T05:32:40.223Z,996.33
2023-04-06T05:33:40.194Z,996.31
2023-04-06T05:34:40.173Z,996.33
2023-04-06T05:35:40.179Z,996.32
2023-04-06T05:36:40.127Z,996.32
2023-04-06T05:37:40.110Z,996.33
2023-04-06T05:38:40.089Z,996.35
2023-04-06T05:39:40.068Z,996.34
2023-04-06T05:40:40.060Z,996.31
2023-04-06T05:41:40.046Z,996.32
2023-04-06T05:42:40.037Z,996.32
2023-04-06T05:43:39.998Z,996.34
2023-04-06T05:44:39.968Z,996.34
2023-04-06T05:45:39.957Z,996.32
2023-04-06T05:46:40.047Z,996.31
2023-04-06T05:47:39.933Z,996.39
2023-04-06T05:48:39.882Z,996.37
2023-04-06T05:49:39.868Z,996.34
2023-04-06T05:50:39.841Z,996.33
2023-04-06T05:51:39.849Z,996.30
2023-04-06T05:52:39.802Z,996.35
2023-04-06T05:53:39.800Z,996.33
2023-04-06T05:54:39.766Z,996.38
2023-04-06T05:55:39.748Z,996.38
2023-04-06T05:56:39.725Z,996.40
2023-04-06T05:57:39.717Z,996.40
2023-04-06T05:58:39.721Z,996.35
2023-04-06T05:59:39.757Z,996.39
2023-04-06T06:00:39.652Z,996.40
2023-04-06T06:01:39.686Z,996.43
2023-04-06T06:02:39.837Z,996.41
2023-04-06T06:03:39.590Z,996.38
2023-04-06T06:04:39.618Z,996.39
2023-04-06T06:05:39.552Z,996.40
2023-04-06T06:06:39.537Z,996.40
2023-04-06T06:07:39.513Z,996.40
2023-04-06T06:08:39.490Z,996.44
2023-04-06T06:09:39.481Z,996.44
2023-04-06T06:10:39.463Z,996.43
2023-04-06T06:11:39.443Z,996.46
2023-04-06T06:12:39.438Z,996.42
2023-04-06T06:13:39.396Z,996.39
2023-04-06T06:14:39.379Z,996.43
2023-04-06T06:15:39.395Z,996.42
2023-04-06T06:16:39.591Z,996.42
2023-04-06T06:17:39.341Z,996.44
2023-04-06T06:18:39.312Z,996.46
2023-04-06T06:19:39.287Z,996.49
2023-04-06T06:20:39.273Z,996.49
2023-04-06T06:21:39.251Z,996.50
2023-04-06T06:22:39.228Z,996.49
2023-04-06T06:23:39.215Z,996.45
2023-04-06T06:24:39.415Z,996.46
2023-04-06T06:25:39.185Z,996.48
2023-04-06T06:26:39.156Z,996.47
2023-04-06T06:27:39.135Z,996.45
2023-04-06T06:28:39.143Z,996.50
2023-04-06T06:29:39.120Z,996.47
2023-04-06T06:30:39.082Z,996.47
2023-04-06T06:31:39.182Z,996.49
2023-04-06T06:32:39.068Z,996.52
2023-04-06T06:33:39.055Z,996.52
2023-04-06T06:34:39.014Z,996.51
2023-04-06T06:35:39.043Z,996.49
2023-04-06T06:36:38.983Z,996.48
2023-04-06T06:37:38.960Z,996.49
2023-04-06T06:38:38.950Z,996.51
2023-04-06T06:39:38.930Z,996.51
2023-04-06T06:40:38.920Z,996.53
2023-04-06T06:41:38.913Z,996.54
2023-04-06T06:42:38.881Z,996.53
2023-04-06T06:43:38.864Z,996.57
2023-04-06T06:44:38.845Z,996.55
2023-04-06T06:45:38.843Z,996.55
2023-04-06T06:46:38.804Z,996.54
2023-04-06T06:47:38.815Z,996.56
2023-04-06T06:48:38.786Z,996.58
2023-04-06T06:49:38.770Z,996.53
2023-04-06T06:50:38.739Z,996.54
2023-04-06T06:51:38.725Z,996.54
2023-04-06T06:52:38.706Z,996.52
2023-04-06T06:53:38.685Z,996.52
2023-04-06T06:54:38.664Z,996.54
2023-04-06T06:55:38.668Z,996.52
2023-04-06T06:56:38.642Z,996.49
2023-04-06T06:57:38.615Z,996.49
2023-04-06T06:58:38.598Z,996.47
2023-04-06T06:59:38.634Z,996.47
2023-04-06T07:00:38.596Z,996.53
2023-04-06T07:01:38.749Z,996.50
2023-04-06T07:02:38.549Z,996.48
2023-04-06T07:03:38.513Z,996.56
2023-04-06T07:04:38.583Z,996.49
2023-04-06T07:05:40.925Z,996.47
2023-04-06T07:06:38.458Z,996.49
2023-04-06T07:07:38.444Z,996.49
2023-04-06T07:08:38.432Z,996.53
2023-04-06T07:09:38.405Z,996.53
2023-04-06T07:10:38.406Z,996.47
2023-04-06T07:11:38.389Z,996.46
2023-04-06T07:12:38.359Z,996.48
2023-04-06T07:13:38.363Z,996.54
2023-04-06T07:14:38.343Z,996.52
2023-04-06T07:15:38.533Z,996.54
2023-04-06T07:16:38.328Z,996.51
2023-04-06T07:17:38.360Z,996.55
2023-04-06T07:18:38.260Z,996.51
2023-04-06T07:19:38.293Z,996.49
2023-04-06T07:20:38.251Z,996.51
2023-04-06T07:21:38.246Z,996.47
2023-04-06T07:22:38.201Z,996.46
2023-04-06T07:23:38.197Z,996.51
2023-04-06T07:24:38.167Z,996.50
2023-04-06T07:25:38.140Z,996.52
2023-04-06T07:26:38.177Z,996.58
2023-04-06T07:27:38.129Z,996.56
2023-04-06T07:28:38.118Z,996.52
2023-04-06T07:29:38.076Z,996.54
2023-04-06T07:30:38.075Z,996.56
2023-04-06T07:31:38.103Z,996.57
2023-04-06T07:32:38.077Z,996.56
2023-04-06T07:33:38.027Z,996.53
2023-04-06T07:34:37.999Z,996.55
2023-04-06T07:35:38.036Z,996.56
2023-04-06T07:36:37.984Z,996.51
2023-04-06T07:37:37.955Z,996.56
2023-04-06T07:38:37.942Z,996.53
2023-04-06T07:39:37.934Z,996.55
2023-04-06T07:40:37.914Z,996.55
2023-04-06T07:41:37.901Z,996.50
2023-04-06T07:42:37.883Z,996.55
2023-04-06T07:43:37.870Z,996.55
2023-04-06T07:44:37.871Z,996.53
2023-04-06T07:45:37.921Z,996.54
2023-04-06T07:46:37.866Z,996.54
2023-04-06T07:47:37.847Z,996.60
2023-04-06T07:48:37.817Z,996.57
2023-04-06T07:49:37.789Z,996.60
2023-04-06T07:50:37.779Z,996.60
2023-04-06T07:51:37.776Z,996.69
2023-04-06T07:52:38.372Z,996.65
2023-04-06T07:53:37.772Z,996.69
2023-04-06T07:54:37.741Z,996.69
2023-04-06T07:55:37.718Z,996.71
2023-04-06T07:56:37.705Z,996.74
2023-04-06T07:57:37.698Z,996.72
2023-04-06T07:58:37.683Z,996.79
2023-04-06T07:59:37.742Z,996.78
2023-04-06T08:00:37.663Z,996.80
2023-04-06T08:01:37.653Z,996.74
2023-04-06T08:02:37.836Z,996.77
2023-04-06T08:03:37.995Z,996.79
2023-04-06T08:04:37.669Z,996.77
2023-04-06T08:05:37.623Z,996.78
2023-04-06T08:06:37.614Z,996.79
2023-04-06T08:07:37.597Z,996.80
2023-04-06T08:08:37.592Z,996.83
2023-04-06T08:09:37.584Z,996.81
2023-04-06T08:10:37.585Z,996.80
2023-04-06T08:11:37.569Z,996.81
2023-04-06T08:12:37.564Z,996.76
2023-04-06T08:13:37.547Z,996.77
2023-04-06T08:14:37.544Z,996.78
2023-04-06T08:15:37.603Z,996.79
2023-04-06T08:16:37.540Z,996.79
2023-04-06T08:17:37.535Z,996.80
2023-04-06T08:18:37.520Z,996.77
2023-04-06T08:19:37.510Z,996.79
2023-04-06T08:20:37.505Z,996.81
2023-04-06T08:21:37.504Z,996.80
2023-04-06T08:22:37.492Z,996.80
2023-04-06T08:23:37.485Z,996.81
2023-04-06T08:24:37.482Z,996.84
2023-04-06T08:25:37.478Z,996.79
2023-04-06T08:26:37.481Z,996.83
2023-04-06T08:27:37.474Z,996.88
2023-04-06T08:28:37.498Z,996.88
2023-04-06T08:29:37.458Z,996.86
2023-04-06T08:30:37.452Z,996.90
2023-04-06T08:31:37.557Z,996.89
2023-04-06T08:32:37.518Z,996.88
2023-04-06T08:33:37.443Z,996.87
2023-04-06T08:34:37.444Z,996.91
2023-04-06T08:35:37.474Z,996.87
2023-04-06T08:36:37.435Z,996.92
2023-04-06T08:37:37.426Z,996.83
2023-04-06T08:38:37.419Z,996.86
2023-04-06T08:39:37.436Z,996.87
2023-04-06T08:40:37.420Z,996.87
2023-04-06T08:41:37.419Z,996.85
2023-04-06T08:42:37.408Z,996.85
2023-04-06T08:43:37.414Z,996.87
2023-04-06T08:44:37.405Z,996.85
2023-04-06T08:45:37.411Z,996.87
2023-04-06T08:46:37.434Z,996.85
2023-04-06T08:47:37.405Z,996.89
2023-04-06T08:48:37.398Z,996.87
2023-04-06T08:49:37.394Z,996.83
2023-04-06T08:50:37.387Z,996.87
2023-04-06T08:51:37.386Z,996.84
2023-04-06T08:52:37.387Z,996.89
2023-04-06T08:53:37.374Z,996.84
2023-04-06T08:54:37.375Z,996.83
2023-04-06T08:55:37.379Z,996.81
2023-04-06T08:56:37.370Z,996.84
2023-04-06T08:57:37.366Z,996.84
2023-04-06T08:58:38.742Z,996.83
2023-04-06T08:59:37.534Z,996.84
2023-04-06T09:00:37.362Z,996.78
2023-04-06T09:01:37.380Z,996.77
2023-04-06T09:02:37.414Z,996.78
2023-04-06T09:03:37.485Z,996.80
2023-04-06T09:04:37.418Z,996.76
2023-04-06T09:05:37.351Z,996.79
2023-04-06T09:06:37.348Z,996.79
2023-04-06T09:07:37.368Z,996.75
2023-04-06T09:08:37.361Z,996.78
2023-04-06T09:09:37.348Z,996.74
2023-04-06T09:10:37.354Z,996.74
2023-04-06T09:11:37.340Z,996.75
2023-04-06T09:12:37.360Z,996.79
2023-04-06T09:13:37.339Z,996.72
2023-04-06T09:14:37.362Z,996.76
2023-04-06T09:15:37.344Z,996.72
2023-04-06T09:16:37.373Z,996.77
2023-04-06T09:17:37.364Z,996.79
2023-04-06T09:18:37.332Z,996.76
2023-04-06T09:19:37.336Z,996.74
2023-04-06T09:20:37.359Z,996.72
2023-04-06T09:21:37.329Z,996.74
2023-04-06T09:22:37.332Z,996.71
2023-04-06T09:23:37.350Z,996.53
2023-04-06T09:24:37.334Z,996.70
2023-04-06T09:25:37.326Z,996.70
2023-04-06T09:26:37.324Z,996.73
2023-04-06T09:27:37.324Z,996.70
2023-04-06T09:28:37.327Z,996.69
2023-04-06T09:29:37.319Z,996.74
2023-04-06T09:30:37.336Z,996.77
2023-04-06T09:31:37.341Z,996.76
2023-04-06T09:32:37.335Z,996.71
2023-04-06T09:33:37.317Z,996.71
2023-04-06T09:34:37.321Z,996.67
2023-04-06T09:35:37.375Z,996.66
2023-04-06T09:36:37.320Z,996.69
2023-04-06T09:37:37.323Z,996.69
2023-04-06T09:38:37.316Z,996.68
2023-04-06T09:39:37.316Z,996.70
2023-04-06T09:40:39.879Z,996.65
2023-04-06T09:41:37.313Z,996.68
2023-04-06T09:42:37.321Z,996.66
2023-04-06T09:43:37.322Z,996.67
2023-04-06T09:44:37.313Z,996.67
2023-04-06T09:45:37.312Z,996.63
2023-04-06T09:46:50.712Z,996.67
2023-04-06T09:47:37.410Z,996.66
2023-04-06T09:48:37.333Z,996.60
2023-04-06T09:49:37.313Z,996.61
2023-04-06T09:50:37.316Z,996.62
2023-04-06T09:51:39.751Z,996.56
2023-04-06T09:52:37.316Z,996.62
2023-04-06T09:53:37.312Z,996.59
2023-04-06T09:54:37.333Z,996.59
2023-04-06T09:55:37.316Z,996.63
2023-04-06T09:56:37.315Z,996.67
2023-04-06T09:57:37.328Z,996.58
2023-04-06T09:58:37.399Z,996.60
2023-04-06T09:59:37.343Z,996.59
2023-04-06T10:00:37.332Z,996.64
2023-04-06T10:01:37.325Z,996.59
2023-04-06T10:02:37.364Z,996.62
2023-04-06T10:03:37.388Z,996.62
2023-04-06T10:04:37.318Z,996.55
2023-04-06T10:05:37.316Z,996.58
2023-04-06T10:06:37.322Z,996.58
2023-04-06T10:07:43.239Z,996.64
2023-04-06T10:08:37.335Z,996.59
2023-04-06T10:09:37.323Z,996.61
2023-04-06T10:10:37.333Z,996.63
2023-04-06T10:11:37.326Z,996.63
2023-04-06T10:12:37.334Z,996.57
2023-04-06T10:13:37.326Z,996.60
2023-04-06T10:14:37.332Z,996.58
2023-04-06T10:15:37.334Z,996.56
2023-04-06T10:16:37.365Z,996.49
2023-04-06T10:17:37.380Z,996.52
2023-04-06T10:18:37.338Z,996.55
2023-04-06T10:19:37.338Z,996.55
2023-04-06T10:20:37.348Z,996.56
2023-04-06T10:21:37.341Z,996.55
2023-04-06T10:22:37.343Z,996.54
2023-04-06T10:23:37.363Z,996.56
2023-04-06T10:24:37.354Z,996.53
2023-04-06T10:25:37.348Z,996.57
2023-04-06T10:26:37.348Z,996.59
2023-04-06T10:27:37.357Z,996.53
2023-04-06T10:28:37.386Z,996.54
2023-04-06T10:29:37.359Z,996.50
2023-04-06T10:30:37.366Z,996.51
2023-04-06T10:31:37.394Z,996.47
2023-04-06T10:32:37.406Z,996.52
2023-04-06T10:33:37.390Z,996.50
2023-04-06T10:34:37.391Z,996.50
2023-04-06T10:35:37.389Z,996.48
2023-04-06T10:36:37.388Z,996.52
2023-04-06T10:37:37.412Z,996.48
2023-04-06T10:38:41.179Z,996.47
2023-04-06T10:39:37.396Z,996.44
2023-04-06T10:40:37.395Z,996.31
2023-04-06T10:41:37.396Z,996.44
2023-04-06T10:42:37.435Z,996.48
2023-04-06T10:43:37.479Z,996.44
2023-04-06T10:44:37.404Z,996.51
2023-04-06T10:45:37.436Z,996.44
2023-04-06T10:46:37.415Z,996.43
2023-04-06T10:47:37.477Z,996.40
2023-04-06T10:48:37.415Z,996.42
2023-04-06T10:49:37.425Z,996.42
2023-04-06T10:50:37.430Z,996.39
2023-04-06T10:51:37.422Z,996.41
2023-04-06T10:52:37.423Z,996.36
2023-04-06T10:53:37.445Z,996.36
2023-04-06T10:54:37.428Z,996.29
2023-04-06T10:55:37.425Z,996.32
2023-04-06T10:56:37.445Z,996.35
2023-04-06T10:57:37.434Z,996.29
2023-04-06T10:58:37.709Z,996.29
2023-04-06T10:59:37.482Z,996.35
2023-04-06T11:00:49.700Z,996.36
2023-04-06T11:01:37.502Z,996.38
2023-04-06T11:02:37.503Z,996.40
2023-04-06T11:03:37.441Z,996.34
2023-04-06T11:04:37.521Z,996.37
2023-04-06T11:05:37.444Z,996.40
2023-04-06T11:06:37.445Z,996.36
2023-04-06T11:07:37.447Z,996.37
2023-04-06T11:08:37.585Z,996.37
2023-04-06T11:09:37.443Z,996.36
2023-04-06T11:10:37.456Z,996.35
2023-04-06T11:11:37.456Z,996.35
2023-04-06T11:12:37.443Z,996.29
2023-04-06T11:13:37.446Z,996.26
2023-04-06T11:14:37.447Z,996.29
2023-04-06T11:15:38.968Z,996.24
2023-04-06T11:16:37.462Z,996.25
2023-04-06T11:17:37.513Z,996.19
2023-04-06T11:18:37.746Z,996.19
2023-04-06T11:19:37.436Z,996.23
2023-04-06T11:20:37.444Z,996.25
2023-04-06T11:21:37.457Z,996.19
2023-04-06T11:22:37.434Z,996.20
2023-04-06T11:23:37.432Z,996.23
2023-04-06T11:24:37.435Z,996.24
2023-04-06T11:25:37.432Z,996.31
2023-04-06T11:26:37.425Z,996.34
2023-04-06T11:27:37.432Z,996.28
2023-04-06T11:28:37.586Z,996.28
2023-04-06T11:29:37.428Z,996.13
2023-04-06T11:30:37.440Z,996.17
2023-04-06T11:31:37.481Z,996.16
2023-04-06T11:32:37.506Z,996.23
2023-04-06T11:33:37.422Z,996.16
2023-04-06T11:34:37.431Z,996.17
2023-04-06T11:35:37.455Z,996.12
2023-04-06T11:36:37.420Z,996.16
2023-04-06T11:37:37.429Z,996.15
2023-04-06T11:38:37.606Z,996.11
2023-04-06T11:39:37.446Z,996.13
2023-04-06T11:40:37.454Z,996.08
2023-04-06T11:41:37.446Z,996.08
2023-04-06T11:42:37.428Z,995.98
2023-04-06T11:43:37.425Z,996.02
2023-04-06T11:44:37.431Z,996.08
2023-04-06T11:45:37.467Z,996.06
2023-04-06T11:46:37.444Z,996.05
2023-04-06T11:47:37.521Z,996.03
2023-04-06T11:48:37.920Z,996.05
2023-04-06T11:49:37.426Z,996.05
2023-04-06T11:50:38.023Z,996.02
2023-04-06T11:51:37.427Z,996.01
2023-04-06T11:52:37.549Z,995.97
2023-04-06T11:53:37.432Z,995.95
2023-04-06T11:54:37.475Z,996.03
2023-04-06T11:55:37.446Z,996.03
2023-04-06T11:56:37.813Z,996.00
2023-04-06T11:57:37.425Z,995.97
2023-04-06T11:58:37.447Z,995.97
2023-04-06T11:59:37.714Z,995.94
2023-04-06T12:00:37.420Z,995.92
2023-04-06T12:01:39.407Z,995.92
2023-04-06T12:02:37.506Z,995.93
2023-04-06T12:03:37.580Z,995.95
2023-04-06T12:04:37.496Z,995.91
2023-04-06T12:05:37.423Z,995.92
2023-04-06T12:06:37.421Z,995.95
2023-04-06T12:07:37.415Z,995.91
2023-04-06T12:08:37.607Z,995.86
2023-04-06T12:09:37.420Z,995.85
2023-04-06T12:10:37.406Z,995.86
2023-04-06T12:11:37.407Z,995.80
2023-04-06T12:12:37.408Z,995.87
2023-04-06T12:13:37.415Z,995.88
2023-04-06T12:14:37.397Z,995.84
2023-04-06T12:15:37.406Z,995.83
2023-04-06T12:16:37.528Z,995.86
2023-04-06T12:17:37.424Z,995.82
2023-04-06T12:18:37.406Z,995.78
2023-04-06T12:19:37.395Z,995.80
2023-04-06T12:20:37.419Z,995.76
2023-04-06T12:21:37.388Z,995.74
2023-04-06T12:22:37.404Z,995.78
2023-04-06T12:23:37.390Z,995.73
2023-04-06T12:24:37.382Z,995.75
2023-04-06T12:25:37.376Z,995.70
2023-04-06T12:26:37.383Z,995.69
2023-04-06T12:27:37.352Z,995.70
2023-04-06T12:28:37.399Z,995.74